Terminal Aerodrome Forecast
Issued by NWS

Home | Current Version | Previous Version | Text Only | Print | Product List | Glossary On
Versions: 1 2 3 4 5 6 7 8 9 10 11 12 13 14 15 16 17 18 19 20 21 22 23 24 25 26 27
000
FTUS45 KPSR 241720
TAFPHX
TAF
KPHX 241720Z 2418/2518 24005KT P6SM FEW050
      TEMPO 2418/2419 VRB04KT
     FM242100 26007KT P6SM SCT050 SCT070 SCT200
     FM250800 13004KT P6SM FEW050=

USA.gov is the U.S. government's official web portal to all federal, state and local government web resources and services.